Lady Jane — PC9348 — position and weather

sailwx.info

Track history (hours):
 
Tides and Currents Weather Stations Pressure Air Temp Water Temp Dewpoint Dewpoint Depression Visibility Wind Speed Wind Dir Waves Ship Positions

Lady Jane

Last reported at 2018-May-16 08:28 UTC. Time now 2018-Jun-24 10:52 UTC.
Position N 39°17' W 027°47'.
Warning: this ship's position is 39 days out of date.

Length 10 m.

Type: Pleasure craft. MMSI: 244020749.

Date/timePositionNaut miles runAvg speedWind from/ knotsBaromVisibWave heightAir tempDewpointWater temp
2018-May-16 08:28N 39°17' W 027°47'1 1.5
2018-May-16 07:57N 39°16' W 027°48'1 1.4
2018-May-16 07:30N 39°16' W 027°48'1 1.6
2018-May-16 06:58N 39°15' W 027°49'1 1.2
2018-May-16 06:30N 39°14' W 027°49'1 1.6
2018-May-16 06:00N 39°14' W 027°50'1 2.1
2018-May-16 05:30N 39°13' W 027°51'2 3.4
2018-May-16 04:59N 39°12' W 027°53'2 4.0
2018-May-16 04:30N 39°11' W 027°54'2 4.0
2018-May-16 04:00N 39°10' W 027°57'2 3.8
2018-May-16 03:30N 39°09' W 027°59'2 3.8
2018-May-16 03:00N 39°08' W 028°01'2 4.1
2018-May-16 02:30N 39°07' W 028°03'2 3.9
2018-May-16 02:00N 39°06' W 028°05'2 3.7
2018-May-16 01:29N 39°05' W 028°07'2 3.7
2018-May-16 01:00N 39°03' W 028°08'2 3.8
2018-May-16 00:30N 39°02' W 028°09'2 3.7
2018-May-16 00:00N 38°60' W 028°11'2 3.7
2018-May-15 23:30N 38°59' W 028°12'2 3.6
2018-May-15 23:00N 38°57' W 028°14'2 3.7
2018-May-15 22:30N 38°56' W 028°15'1 1.8
2018-May-15 22:00N 38°55' W 028°16'1 1.8
2018-May-15 21:27N 38°54' W 028°17'1 1.6
2018-May-15 21:00N 38°54' W 028°18'1 2.0
2018-May-15 20:30N 38°53' W 028°18'1 2.2
2018-May-15 20:00N 38°52' W 028°19'1 2.3
2018-May-15 19:30N 38°51' W 028°20'1 2.8
2018-May-15 19:00N 38°50' W 028°21'1 3.0
2018-May-15 18:30N 38°49' W 028°21'1 2.9
2018-May-15 18:00N 38°47' W 028°22'1 2.4
2018-May-15 17:30N 38°46' W 028°23'1 1.8
2018-May-15 17:00N 38°45' W 028°23'1 1.4
2018-May-15 16:30N 38°45' W 028°24'1 2.3
2018-May-15 16:00N 38°44' W 028°25'2 3.3
2018-May-15 15:30N 38°43' W 028°26'1 2.3
2018-May-15 15:00N 38°42' W 028°27'1 2.8
2018-May-15 14:30N 38°41' W 028°28'1 2.7
2018-May-15 14:00N 38°40' W 028°29'1 2.5
2018-May-15 13:30N 38°39' W 028°30'2 3.1
2018-May-15 13:00N 38°38' W 028°31'2 3.8
2018-May-15 12:30N 38°36' W 028°32'2 3.7
2018-May-15 12:00N 38°34' W 028°34'2 4.4
2018-May-15 11:30N 38°33' W 028°36'2 3.1
2018-May-15 11:00N 38°32' W 028°38'  
2018-May-11 16:29N 38°32' W 028°38'0 0.0
2018-May-11 15:59N 38°32' W 028°38'0 0.1
2018-May-11 15:28N 38°32' W 028°38'1 2.8
2018-May-11 15:00N 38°32' W 028°36'3 6.0
2018-May-11 14:30N 38°34' W 028°33'2 5.0
2018-May-11 14:00N 38°35' W 028°30'2 4.5
2018-May-11 13:30N 38°36' W 028°27'2 3.8
2018-May-11 13:01N 38°37' W 028°25'2 4.4
2018-May-11 12:30N 38°38' W 028°22'2 3.5
2018-May-11 12:00N 38°38' W 028°20'2 4.1
2018-May-11 11:30N 38°39' W 028°18'2 4.7
2018-May-11 11:00N 38°40' W 028°15'2 4.8
2018-May-11 10:29N 38°41' W 028°12'  
2018-May-08 21:37N 38°41' W 028°12'0 0.0
2018-May-08 21:25N 38°41' W 028°12'0 0.0
2018-May-08 20:55N 38°41' W 028°12'0 0.0
2018-May-08 20:22N 38°41' W 028°12'0 0.0
2018-May-08 19:49N 38°41' W 028°12'0 0.0
2018-May-08 19:28N 38°41' W 028°12'0 0.0
2018-May-08 18:37N 38°41' W 028°12'0 0.1
2018-May-08 18:08N 38°41' W 028°12'0 0.1
2018-May-08 17:58N 38°41' W 028°12'1 2.2
2018-May-08 17:30N 38°40' W 028°13'2 4.8
2018-May-08 17:00N 38°39' W 028°16'3 5.2
2018-May-08 16:30N 38°39' W 028°19'2 4.9
2018-May-08 16:00N 38°38' W 028°23'2 4.6
2018-May-08 15:30N 38°38' W 028°25'2 4.2
2018-May-08 15:00N 38°37' W 028°28'2 3.2
2018-May-08 14:30N 38°36' W 028°29'1 2.9
2018-May-08 14:00N 38°35' W 028°31'1 2.7
2018-May-08 13:30N 38°34' W 028°32'1 1.8
2018-May-08 13:00N 38°34' W 028°33'1 1.7
2018-May-08 12:30N 38°33' W 028°33'1 2.7
2018-May-08 12:00N 38°32' W 028°34'1 1.5
2018-May-08 11:30N 38°32' W 028°35'2 3.3
2018-May-08 11:00N 38°32' W 028°37'  
Track history (hours):
 
Tides and Currents Weather Stations Pressure Air Temp Water Temp Dewpoint Dewpoint Depression Visibility Wind Speed Wind Dir Waves Ship Positions

Lady Jane

Last reported at 2018-May-16 08:28 UTC. Time now 2018-Jun-24 10:52 UTC.
Position N 39°17' W 027°47'.
Warning: this ship's position is 39 days out of date.

Length 10 m.

Type: Pleasure craft. MMSI: 244020749.

Date/timePositionNaut miles runAvg speedWind from/ knotsBaromVisibWave heightAir tempDewpointWater temp
2018-May-16 08:28N 39°17' W 027°47'1 1.5
2018-May-16 07:57N 39°16' W 027°48'1 1.4
2018-May-16 07:30N 39°16' W 027°48'1 1.6
2018-May-16 06:58N 39°15' W 027°49'1 1.2
2018-May-16 06:30N 39°14' W 027°49'1 1.6
2018-May-16 06:00N 39°14' W 027°50'1 2.1
2018-May-16 05:30N 39°13' W 027°51'2 3.4
2018-May-16 04:59N 39°12' W 027°53'2 4.0
2018-May-16 04:30N 39°11' W 027°54'2 4.0
2018-May-16 04:00N 39°10' W 027°57'2 3.8
2018-May-16 03:30N 39°09' W 027°59'2 3.8
2018-May-16 03:00N 39°08' W 028°01'2 4.1
2018-May-16 02:30N 39°07' W 028°03'2 3.9
2018-May-16 02:00N 39°06' W 028°05'2 3.7
2018-May-16 01:29N 39°05' W 028°07'2 3.7
2018-May-16 01:00N 39°03' W 028°08'2 3.8
2018-May-16 00:30N 39°02' W 028°09'2 3.7
2018-May-16 00:00N 38°60' W 028°11'2 3.7
2018-May-15 23:30N 38°59' W 028°12'2 3.6
2018-May-15 23:00N 38°57' W 028°14'2 3.7
2018-May-15 22:30N 38°56' W 028°15'1 1.8
2018-May-15 22:00N 38°55' W 028°16'1 1.8
2018-May-15 21:27N 38°54' W 028°17'1 1.6
2018-May-15 21:00N 38°54' W 028°18'1 2.0
2018-May-15 20:30N 38°53' W 028°18'1 2.2
2018-May-15 20:00N 38°52' W 028°19'1 2.3
2018-May-15 19:30N 38°51' W 028°20'1 2.8
2018-May-15 19:00N 38°50' W 028°21'1 3.0
2018-May-15 18:30N 38°49' W 028°21'1 2.9
2018-May-15 18:00N 38°47' W 028°22'1 2.4
2018-May-15 17:30N 38°46' W 028°23'1 1.8
2018-May-15 17:00N 38°45' W 028°23'1 1.4
2018-May-15 16:30N 38°45' W 028°24'1 2.3
2018-May-15 16:00N 38°44' W 028°25'2 3.3
2018-May-15 15:30N 38°43' W 028°26'1 2.3
2018-May-15 15:00N 38°42' W 028°27'1 2.8
2018-May-15 14:30N 38°41' W 028°28'1 2.7
2018-May-15 14:00N 38°40' W 028°29'1 2.5
2018-May-15 13:30N 38°39' W 028°30'2 3.1
2018-May-15 13:00N 38°38' W 028°31'2 3.8
2018-May-15 12:30N 38°36' W 028°32'2 3.7
2018-May-15 12:00N 38°34' W 028°34'2 4.4
2018-May-15 11:30N 38°33' W 028°36'2 3.1
2018-May-15 11:00N 38°32' W 028°38'  
2018-May-11 16:29N 38°32' W 028°38'0 0.0
2018-May-11 15:59N 38°32' W 028°38'0 0.1
2018-May-11 15:28N 38°32' W 028°38'1 2.8
2018-May-11 15:00N 38°32' W 028°36'3 6.0
2018-May-11 14:30N 38°34' W 028°33'2 5.0
2018-May-11 14:00N 38°35' W 028°30'2 4.5
2018-May-11 13:30N 38°36' W 028°27'2 3.8
2018-May-11 13:01N 38°37' W 028°25'2 4.4
2018-May-11 12:30N 38°38' W 028°22'2 3.5
2018-May-11 12:00N 38°38' W 028°20'2 4.1
2018-May-11 11:30N 38°39' W 028°18'2 4.7
2018-May-11 11:00N 38°40' W 028°15'2 4.8
2018-May-11 10:29N 38°41' W 028°12'  
2018-May-08 21:37N 38°41' W 028°12'0 0.0
2018-May-08 21:25N 38°41' W 028°12'0 0.0
2018-May-08 20:55N 38°41' W 028°12'0 0.0
2018-May-08 20:22N 38°41' W 028°12'0 0.0
2018-May-08 19:49N 38°41' W 028°12'0 0.0
2018-May-08 19:28N 38°41' W 028°12'0 0.0
2018-May-08 18:37N 38°41' W 028°12'0 0.1
2018-May-08 18:08N 38°41' W 028°12'0 0.1
2018-May-08 17:58N 38°41' W 028°12'1 2.2
2018-May-08 17:30N 38°40' W 028°13'2 4.8
2018-May-08 17:00N 38°39' W 028°16'3 5.2
2018-May-08 16:30N 38°39' W 028°19'2 4.9
2018-May-08 16:00N 38°38' W 028°23'2 4.6
2018-May-08 15:30N 38°38' W 028°25'2 4.2
2018-May-08 15:00N 38°37' W 028°28'2 3.2
2018-May-08 14:30N 38°36' W 028°29'1 2.9
2018-May-08 14:00N 38°35' W 028°31'1 2.7
2018-May-08 13:30N 38°34' W 028°32'1 1.8
2018-May-08 13:00N 38°34' W 028°33'1 1.7
2018-May-08 12:30N 38°33' W 028°33'1 2.7
2018-May-08 12:00N 38°32' W 028°34'1 1.5
2018-May-08 11:30N 38°32' W 028°35'2 3.3
2018-May-08 11:00N 38°32' W 028°37'  

Dump ship's entire track history